sensor_id;sensor_type;location;lat;lon;timestamp;temperature;humidity
13652;DHT22;6899;51.546;6.912;2023-02-17T00:02:01;9.50;99.90
13652;DHT22;6899;51.546;6.912;2023-02-17T00:04:29;9.50;99.90
13652;DHT22;6899;51.546;6.912;2023-02-17T00:06:59;9.40;99.90
13652;DHT22;6899;51.546;6.912;2023-02-17T00:09:26;9.50;99.90
13652;DHT22;6899;51.546;6.912;2023-02-17T00:11:53;9.50;99.90
13652;DHT22;6899;51.546;6.912;2023-02-17T00:14:19;9.50;99.90
13652;DHT22;6899;51.546;6.912;2023-02-17T00:16:46;9.50;99.90
13652;DHT22;6899;51.546;6.912;2023-02-17T00:19:14;9.50;99.90
13652;DHT22;6899;51.546;6.912;2023-02-17T00:21:54;9.40;99.90
13652;DHT22;6899;51.546;6.912;2023-02-17T00:24:24;9.40;99.90
13652;DHT22;6899;51.546;6.912;2023-02-17T00:26:54;9.40;99.90
13652;DHT22;6899;51.546;6.912;2023-02-17T00:29:22;9.40;99.90
13652;DHT22;6899;51.546;6.912;2023-02-17T00:31:50;9.40;99.90
13652;DHT22;6899;51.546;6.912;2023-02-17T00:34:17;9.40;99.90
13652;DHT22;6899;51.546;6.912;2023-02-17T00:36:44;9.50;99.90
13652;DHT22;6899;51.546;6.912;2023-02-17T00:39:12;9.40;99.90
13652;DHT22;6899;51.546;6.912;2023-02-17T00:41:41;9.50;99.90
13652;DHT22;6899;51.546;6.912;2023-02-17T00:44:14;9.50;99.90
13652;DHT22;6899;51.546;6.912;2023-02-17T00:46:41;9.50;99.90
13652;DHT22;6899;51.546;6.912;2023-02-17T00:49:13;9.50;99.90
13652;DHT22;6899;51.546;6.912;2023-02-17T00:51:41;9.50;99.90
13652;DHT22;6899;51.546;6.912;2023-02-17T00:54:08;9.40;99.90
13652;DHT22;6899;51.546;6.912;2023-02-17T00:56:35;9.50;99.90
13652;DHT22;6899;51.546;6.912;2023-02-17T00:59:04;9.50;99.90
13652;DHT22;6899;51.546;6.912;2023-02-17T01:01:31;9.50;99.90
13652;DHT22;6899;51.546;6.912;2023-02-17T01:04:04;9.50;99.90
13652;DHT22;6899;51.546;6.912;2023-02-17T01:06:34;9.50;99.90
13652;DHT22;6899;51.546;6.912;2023-02-17T01:09:02;9.50;99.90
13652;DHT22;6899;51.546;6.912;2023-02-17T01:11:31;9.50;99.90
13652;DHT22;6899;51.546;6.912;2023-02-17T01:14:06;9.50;99.90
13652;DHT22;6899;51.546;6.912;2023-02-17T01:16:35;9.50;99.90
13652;DHT22;6899;51.546;6.912;2023-02-17T01:19:04;9.50;99.90
13652;DHT22;6899;51.546;6.912;2023-02-17T01:21:32;9.50;99.90
13652;DHT22;6899;51.546;6.912;2023-02-17T01:24:00;9.50;99.90
13652;DHT22;6899;51.546;6.912;2023-02-17T01:26:29;9.50;99.90
13652;DHT22;6899;51.546;6.912;2023-02-17T01:28:57;9.50;99.90
13652;DHT22;6899;51.546;6.912;2023-02-17T01:31:26;9.50;99.90
13652;DHT22;6899;51.546;6.912;2023-02-17T01:33:56;9.50;99.90
13652;DHT22;6899;51.546;6.912;2023-02-17T01:36:24;9.50;99.90
13652;DHT22;6899;51.546;6.912;2023-02-17T01:38:51;9.40;99.90
13652;DHT22;6899;51.546;6.912;2023-02-17T01:41:19;9.50;99.90
13652;DHT22;6899;51.546;6.912;2023-02-17T01:44:09;9.50;99.90
13652;DHT22;6899;51.546;6.912;2023-02-17T01:46:38;9.50;99.90
13652;DHT22;6899;51.546;6.912;2023-02-17T01:49:18;9.50;99.90
13652;DHT22;6899;51.546;6.912;2023-02-17T01:51:50;9.40;99.90
13652;DHT22;6899;51.546;6.912;2023-02-17T01:54:21;9.40;99.90
13652;DHT22;6899;51.546;6.912;2023-02-17T01:56:51;9.40;99.90
13652;DHT22;6899;51.546;6.912;2023-02-17T01:59:20;9.40;99.90
13652;DHT22;6899;51.546;6.912;2023-02-17T02:01:57;9.40;99.90
13652;DHT22;6899;51.546;6.912;2023-02-17T02:04:28;9.40;99.90
13652;DHT22;6899;51.546;6.912;2023-02-17T02:06:56;9.40;99.90
13652;DHT22;6899;51.546;6.912;2023-02-17T02:09:29;9.40;99.90
13652;DHT22;6899;51.546;6.912;2023-02-17T02:12:02;9.40;99.90
13652;DHT22;6899;51.546;6.912;2023-02-17T02:14:40;9.40;99.90
13652;DHT22;6899;51.546;6.912;2023-02-17T02:17:12;9.40;99.90
13652;DHT22;6899;51.546;6.912;2023-02-17T02:20:02;9.40;99.90
13652;DHT22;6899;51.546;6.912;2023-02-17T02:22:56;9.40;99.90
13652;DHT22;6899;51.546;6.912;2023-02-17T02:25:59;9.40;99.90
13652;DHT22;6899;51.546;6.912;2023-02-17T02:28:43;9.50;99.90
13652;DHT22;6899;51.546;6.912;2023-02-17T02:31:27;9.50;99.90
13652;DHT22;6899;51.546;6.912;2023-02-17T02:34:00;9.50;99.90
13652;DHT22;6899;51.546;6.912;2023-02-17T02:36:32;9.50;99.90
13652;DHT22;6899;51.546;6.912;2023-02-17T02:39:03;9.50;99.90
13652;DHT22;6899;51.546;6.912;2023-02-17T02:41:35;9.50;99.90
13652;DHT22;6899;51.546;6.912;2023-02-17T02:44:04;9.50;99.90
13652;DHT22;6899;51.546;6.912;2023-02-17T02:46:31;9.50;99.90
13652;DHT22;6899;51.546;6.912;2023-02-17T02:48:59;9.40;99.90
13652;DHT22;6899;51.546;6.912;2023-02-17T02:51:38;9.40;99.90
13652;DHT22;6899;51.546;6.912;2023-02-17T02:54:37;9.40;99.90
13652;DHT22;6899;51.546;6.912;2023-02-17T02:57:17;9.40;99.90
13652;DHT22;6899;51.546;6.912;2023-02-17T02:59:57;9.50;99.90
13652;DHT22;6899;51.546;6.912;2023-02-17T03:02:30;9.40;99.90
13652;DHT22;6899;51.546;6.912;2023-02-17T03:05:06;9.50;99.90
13652;DHT22;6899;51.546;6.912;2023-02-17T03:07:47;9.50;99.90
13652;DHT22;6899;51.546;6.912;2023-02-17T03:10:15;9.50;99.90
13652;DHT22;6899;51.546;6.912;2023-02-17T03:12:42;9.50;99.90
13652;DHT22;6899;51.546;6.912;2023-02-17T03:15:14;9.50;99.90
13652;DHT22;6899;51.546;6.912;2023-02-17T03:17:41;9.60;99.90
13652;DHT22;6899;51.546;6.912;2023-02-17T03:20:13;9.60;99.90
13652;DHT22;6899;51.546;6.912;2023-02-17T03:22:45;9.60;99.90
13652;DHT22;6899;51.546;6.912;2023-02-17T03:25:14;9.60;99.90
13652;DHT22;6899;51.546;6.912;2023-02-17T03:27:41;9.70;99.90
13652;DHT22;6899;51.546;6.912;2023-02-17T03:30:09;9.70;99.90
13652;DHT22;6899;51.546;6.912;2023-02-17T03:32:36;9.60;99.90
13652;DHT22;6899;51.546;6.912;2023-02-17T03:35:04;9.70;99.90
13652;DHT22;6899;51.546;6.912;2023-02-17T03:37:32;9.70;99.90
13652;DHT22;6899;51.546;6.912;2023-02-17T03:39:59;9.70;99.90
13652;DHT22;6899;51.546;6.912;2023-02-17T03:42:26;9.70;99.90
13652;DHT22;6899;51.546;6.912;2023-02-17T03:44:53;9.80;99.90
13652;DHT22;6899;51.546;6.912;2023-02-17T03:47:26;9.80;99.90
13652;DHT22;6899;51.546;6.912;2023-02-17T03:49:53;9.80;99.90
13652;DHT22;6899;51.546;6.912;2023-02-17T03:52:20;9.90;99.90
13652;DHT22;6899;51.546;6.912;2023-02-17T03:54:48;9.90;99.90
13652;DHT22;6899;51.546;6.912;2023-02-17T03:57:15;9.80;99.90
13652;DHT22;6899;51.546;6.912;2023-02-17T03:59:42;10.00;99.90
13652;DHT22;6899;51.546;6.912;2023-02-17T04:02:09;10.00;99.90
13652;DHT22;6899;51.546;6.912;2023-02-17T04:04:36;10.00;99.90
13652;DHT22;6899;51.546;6.912;2023-02-17T04:07:04;10.10;99.90
13652;DHT22;6899;51.546;6.912;2023-02-17T04:09:30;10.10;99.90
13652;DHT22;6899;51.546;6.912;2023-02-17T04:11:59;10.10;99.90
13652;DHT22;6899;51.546;6.912;2023-02-17T04:14:25;10.10;99.90
13652;DHT22;6899;51.546;6.912;2023-02-17T04:16:52;10.10;99.90
13652;DHT22;6899;51.546;6.912;2023-02-17T04:19:25;10.10;99.90
13652;DHT22;6899;51.546;6.912;2023-02-17T04:21:52;10.10;99.90
13652;DHT22;6899;51.546;6.912;2023-02-17T04:24:19;10.10;99.90
13652;DHT22;6899;51.546;6.912;2023-02-17T04:26:46;10.10;99.90
13652;DHT22;6899;51.546;6.912;2023-02-17T04:29:17;10.10;99.90
13652;DHT22;6899;51.546;6.912;2023-02-17T04:31:44;10.10;99.90
13652;DHT22;6899;51.546;6.912;2023-02-17T04:34:14;10.10;99.90
13652;DHT22;6899;51.546;6.912;2023-02-17T04:36:40;10.20;99.90
13652;DHT22;6899;51.546;6.912;2023-02-17T04:39:07;10.20;99.90
13652;DHT22;6899;51.546;6.912;2023-02-17T04:41:37;10.10;99.90
13652;DHT22;6899;51.546;6.912;2023-02-17T04:44:04;10.10;99.90
13652;DHT22;6899;51.546;6.912;2023-02-17T04:46:32;10.10;99.90
13652;DHT22;6899;51.546;6.912;2023-02-17T04:49:01;10.10;99.90
13652;DHT22;6899;51.546;6.912;2023-02-17T04:51:28;10.10;99.90
13652;DHT22;6899;51.546;6.912;2023-02-17T04:53:55;10.10;99.90
13652;DHT22;6899;51.546;6.912;2023-02-17T04:56:31;10.20;99.90
13652;DHT22;6899;51.546;6.912;2023-02-17T04:58:58;10.10;99.90
13652;DHT22;6899;51.546;6.912;2023-02-17T05:01:32;10.00;99.90
13652;DHT22;6899;51.546;6.912;2023-02-17T05:03:59;10.20;99.90
13652;DHT22;6899;51.546;6.912;2023-02-17T05:06:25;10.10;99.90
13652;DHT22;6899;51.546;6.912;2023-02-17T05:08:52;10.20;99.90
13652;DHT22;6899;51.546;6.912;2023-02-17T05:11:20;10.20;99.90
13652;DHT22;6899;51.546;6.912;2023-02-17T05:13:46;10.20;99.90
13652;DHT22;6899;51.546;6.912;2023-02-17T05:16:13;10.20;99.90
13652;DHT22;6899;51.546;6.912;2023-02-17T05:18:42;10.20;99.90
13652;DHT22;6899;51.546;6.912;2023-02-17T05:21:09;10.10;99.90
13652;DHT22;6899;51.546;6.912;2023-02-17T05:23:35;10.20;99.90
13652;DHT22;6899;51.546;6.912;2023-02-17T05:26:09;10.30;99.90
13652;DHT22;6899;51.546;6.912;2023-02-17T05:28:36;10.20;99.90
13652;DHT22;6899;51.546;6.912;2023-02-17T05:31:03;10.30;99.90
13652;DHT22;6899;51.546;6.912;2023-02-17T05:33:33;10.30;99.90
13652;DHT22;6899;51.546;6.912;2023-02-17T05:36:03;10.30;99.90
13652;DHT22;6899;51.546;6.912;2023-02-17T05:38:30;10.30;99.90
13652;DHT22;6899;51.546;6.912;2023-02-17T05:40:57;10.30;99.90
13652;DHT22;6899;51.546;6.912;2023-02-17T05:43:24;10.30;99.90
13652;DHT22;6899;51.546;6.912;2023-02-17T05:45:50;10.30;99.90
13652;DHT22;6899;51.546;6.912;2023-02-17T05:48:21;10.30;99.90
13652;DHT22;6899;51.546;6.912;2023-02-17T05:50:47;10.30;99.90
13652;DHT22;6899;51.546;6.912;2023-02-17T05:53:16;10.30;99.90
13652;DHT22;6899;51.546;6.912;2023-02-17T05:55:43;10.30;99.90
13652;DHT22;6899;51.546;6.912;2023-02-17T05:58:10;10.30;99.90
13652;DHT22;6899;51.546;6.912;2023-02-17T06:00:40;10.30;99.90
13652;DHT22;6899;51.546;6.912;2023-02-17T06:03:08;10.20;99.90
13652;DHT22;6899;51.546;6.912;2023-02-17T06:05:35;10.30;99.90
13652;DHT22;6899;51.546;6.912;2023-02-17T06:08:02;10.30;99.90
13652;DHT22;6899;51.546;6.912;2023-02-17T06:10:36;10.30;99.90
13652;DHT22;6899;51.546;6.912;2023-02-17T06:13:06;10.30;99.90
13652;DHT22;6899;51.546;6.912;2023-02-17T06:15:33;10.20;99.90
13652;DHT22;6899;51.546;6.912;2023-02-17T06:18:03;10.30;99.90
13652;DHT22;6899;51.546;6.912;2023-02-17T06:20:30;10.20;99.90
13652;DHT22;6899;51.546;6.912;2023-02-17T06:22:56;10.30;99.90
13652;DHT22;6899;51.546;6.912;2023-02-17T06:25:23;10.30;99.90
13652;DHT22;6899;51.546;6.912;2023-02-17T06:27:54;10.30;99.90
13652;DHT22;6899;51.546;6.912;2023-02-17T06:30:24;10.30;99.90
13652;DHT22;6899;51.546;6.912;2023-02-17T06:32:51;10.30;99.90
13652;DHT22;6899;51.546;6.912;2023-02-17T06:35:18;10.30;99.90
13652;DHT22;6899;51.546;6.912;2023-02-17T06:37:45;10.30;99.90
13652;DHT22;6899;51.546;6.912;2023-02-17T06:40:15;10.30;99.90
13652;DHT22;6899;51.546;6.912;2023-02-17T06:42:43;10.30;99.90
13652;DHT22;6899;51.546;6.912;2023-02-17T06:45:12;10.30;99.90
13652;DHT22;6899;51.546;6.912;2023-02-17T06:47:39;10.30;99.90
13652;DHT22;6899;51.546;6.912;2023-02-17T06:50:08;10.20;99.90
13652;DHT22;6899;51.546;6.912;2023-02-17T06:52:38;10.10;99.90
13652;DHT22;6899;51.546;6.912;2023-02-17T06:55:06;10.10;99.90
13652;DHT22;6899;51.546;6.912;2023-02-17T06:57:33;10.00;99.90
13652;DHT22;6899;51.546;6.912;2023-02-17T07:00:00;9.90;99.90
13652;DHT22;6899;51.546;6.912;2023-02-17T07:02:28;9.80;99.90
13652;DHT22;6899;51.546;6.912;2023-02-17T07:04:55;9.80;99.90
13652;DHT22;6899;51.546;6.912;2023-02-17T07:07:22;9.80;99.90
13652;DHT22;6899;51.546;6.912;2023-02-17T07:09:49;9.90;99.90
13652;DHT22;6899;51.546;6.912;2023-02-17T07:12:16;9.90;99.90
13652;DHT22;6899;51.546;6.912;2023-02-17T07:14:43;9.90;99.90
13652;DHT22;6899;51.546;6.912;2023-02-17T07:17:09;9.90;99.90
13652;DHT22;6899;51.546;6.912;2023-02-17T07:19:38;9.90;99.90
13652;DHT22;6899;51.546;6.912;2023-02-17T07:22:05;9.90;99.90
13652;DHT22;6899;51.546;6.912;2023-02-17T07:24:34;10.10;99.90
13652;DHT22;6899;51.546;6.912;2023-02-17T07:27:06;10.00;99.90
13652;DHT22;6899;51.546;6.912;2023-02-17T07:29:33;10.00;99.90
13652;DHT22;6899;51.546;6.912;2023-02-17T07:32:03;10.00;99.90
13652;DHT22;6899;51.546;6.912;2023-02-17T07:34:30;10.10;99.90
13652;DHT22;6899;51.546;6.912;2023-02-17T07:36:58;10.10;99.90
13652;DHT22;6899;51.546;6.912;2023-02-17T07:39:25;10.10;99.90
13652;DHT22;6899;51.546;6.912;2023-02-17T07:41:52;10.20;99.90
13652;DHT22;6899;51.546;6.912;2023-02-17T07:44:19;10.20;99.90
13652;DHT22;6899;51.546;6.912;2023-02-17T07:46:46;10.30;99.90
13652;DHT22;6899;51.546;6.912;2023-02-17T07:49:15;10.40;99.90
13652;DHT22;6899;51.546;6.912;2023-02-17T07:51:42;10.50;99.90
13652;DHT22;6899;51.546;6.912;2023-02-17T07:54:11;10.40;99.90
13652;DHT22;6899;51.546;6.912;2023-02-17T07:56:41;10.50;99.90
13652;DHT22;6899;51.546;6.912;2023-02-17T07:59:08;10.50;99.90
13652;DHT22;6899;51.546;6.912;2023-02-17T08:01:35;10.50;99.90
13652;DHT22;6899;51.546;6.912;2023-02-17T08:04:02;10.60;99.90
13652;DHT22;6899;51.546;6.912;2023-02-17T08:06:29;10.60;99.90
13652;DHT22;6899;51.546;6.912;2023-02-17T08:08:56;10.60;99.90
13652;DHT22;6899;51.546;6.912;2023-02-17T08:11:42;10.70;99.90
13652;DHT22;6899;51.546;6.912;2023-02-17T08:14:38;10.70;99.90
13652;DHT22;6899;51.546;6.912;2023-02-17T08:17:05;10.80;99.90
13652;DHT22;6899;51.546;6.912;2023-02-17T08:19:34;10.70;99.90
13652;DHT22;6899;51.546;6.912;2023-02-17T08:22:01;10.80;99.90
13652;DHT22;6899;51.546;6.912;2023-02-17T08:24:29;10.80;99.90
13652;DHT22;6899;51.546;6.912;2023-02-17T08:26:57;10.80;99.90
13652;DHT22;6899;51.546;6.912;2023-02-17T08:29:24;10.80;99.90
13652;DHT22;6899;51.546;6.912;2023-02-17T08:31:52;10.90;99.90
13652;DHT22;6899;51.546;6.912;2023-02-17T08:34:19;10.90;99.90
13652;DHT22;6899;51.546;6.912;2023-02-17T08:36:46;10.90;99.90
13652;DHT22;6899;51.546;6.912;2023-02-17T08:39:15;11.00;99.90
13652;DHT22;6899;51.546;6.912;2023-02-17T08:41:45;11.00;99.90
13652;DHT22;6899;51.546;6.912;2023-02-17T08:44:20;11.00;99.90
13652;DHT22;6899;51.546;6.912;2023-02-17T08:46:51;11.00;99.90
13652;DHT22;6899;51.546;6.912;2023-02-17T08:49:20;11.20;99.90
13652;DHT22;6899;51.546;6.912;2023-02-17T08:51:49;11.20;99.90
13652;DHT22;6899;51.546;6.912;2023-02-17T08:54:16;11.20;99.90
13652;DHT22;6899;51.546;6.912;2023-02-17T08:56:43;11.20;99.90
13652;DHT22;6899;51.546;6.912;2023-02-17T08:59:11;11.30;99.90
13652;DHT22;6899;51.546;6.912;2023-02-17T09:01:41;11.30;99.90
13652;DHT22;6899;51.546;6.912;2023-02-17T09:04:10;11.40;99.90
13652;DHT22;6899;51.546;6.912;2023-02-17T09:06:41;11.40;99.90
13652;DHT22;6899;51.546;6.912;2023-02-17T09:09:10;11.40;99.90
13652;DHT22;6899;51.546;6.912;2023-02-17T09:11:38;11.50;99.90
13652;DHT22;6899;51.546;6.912;2023-02-17T09:14:06;11.60;99.90
13652;DHT22;6899;51.546;6.912;2023-02-17T09:16:34;11.60;99.90
13652;DHT22;6899;51.546;6.912;2023-02-17T09:19:02;11.60;99.90
13652;DHT22;6899;51.546;6.912;2023-02-17T09:21:29;11.70;99.90
13652;DHT22;6899;51.546;6.912;2023-02-17T09:24:06;11.70;99.90
13652;DHT22;6899;51.546;6.912;2023-02-17T09:26:33;11.80;99.90
13652;DHT22;6899;51.546;6.912;2023-02-17T09:29:01;11.90;99.90
13652;DHT22;6899;51.546;6.912;2023-02-17T09:31:28;12.00;99.90
13652;DHT22;6899;51.546;6.912;2023-02-17T09:33:56;12.00;99.90
13652;DHT22;6899;51.546;6.912;2023-02-17T09:36:27;12.20;99.90
13652;DHT22;6899;51.546;6.912;2023-02-17T09:38:54;12.20;99.90
13652;DHT22;6899;51.546;6.912;2023-02-17T09:41:23;12.30;99.90
13652;DHT22;6899;51.546;6.912;2023-02-17T09:43:52;12.40;99.90
13652;DHT22;6899;51.546;6.912;2023-02-17T09:46:23;12.40;99.90
13652;DHT22;6899;51.546;6.912;2023-02-17T09:48:53;12.40;99.90
13652;DHT22;6899;51.546;6.912;2023-02-17T09:51:28;12.40;99.90
13652;DHT22;6899;51.546;6.912;2023-02-17T09:54:02;12.30;99.90
13652;DHT22;6899;51.546;6.912;2023-02-17T09:56:38;12.30;99.90
13652;DHT22;6899;51.546;6.912;2023-02-17T09:59:19;12.40;99.90
13652;DHT22;6899;51.546;6.912;2023-02-17T10:01:48;12.40;99.90
13652;DHT22;6899;51.546;6.912;2023-02-17T10:04:19;12.30;99.90
13652;DHT22;6899;51.546;6.912;2023-02-17T10:06:52;12.40;99.90
13652;DHT22;6899;51.546;6.912;2023-02-17T10:09:25;12.30;99.90
13652;DHT22;6899;51.546;6.912;2023-02-17T10:11:56;12.30;99.90
13652;DHT22;6899;51.546;6.912;2023-02-17T10:14:32;12.30;99.90
13652;DHT22;6899;51.546;6.912;2023-02-17T10:17:08;12.30;99.90
13652;DHT22;6899;51.546;6.912;2023-02-17T10:19:51;12.30;99.90
13652;DHT22;6899;51.546;6.912;2023-02-17T10:22:23;12.30;99.90
13652;DHT22;6899;51.546;6.912;2023-02-17T10:24:51;12.30;99.90
13652;DHT22;6899;51.546;6.912;2023-02-17T10:27:38;12.30;99.90
13652;DHT22;6899;51.546;6.912;2023-02-17T10:30:26;12.50;99.90
13652;DHT22;6899;51.546;6.912;2023-02-17T10:33:11;12.60;99.90
13652;DHT22;6899;51.546;6.912;2023-02-17T10:35:53;12.70;99.90
13652;DHT22;6899;51.546;6.912;2023-02-17T10:38:34;12.70;99.90
13652;DHT22;6899;51.546;6.912;2023-02-17T10:41:08;12.70;99.90
13652;DHT22;6899;51.546;6.912;2023-02-17T10:43:36;12.90;99.90
13652;DHT22;6899;51.546;6.912;2023-02-17T10:46:05;12.90;99.90
13652;DHT22;6899;51.546;6.912;2023-02-17T10:48:36;12.90;99.90
13652;DHT22;6899;51.546;6.912;2023-02-17T10:51:04;12.90;99.90
13652;DHT22;6899;51.546;6.912;2023-02-17T10:53:38;12.90;99.90
13652;DHT22;6899;51.546;6.912;2023-02-17T10:56:10;13.10;99.90
13652;DHT22;6899;51.546;6.912;2023-02-17T10:58:47;13.10;99.90
13652;DHT22;6899;51.546;6.912;2023-02-17T11:01:15;13.00;99.90
13652;DHT22;6899;51.546;6.912;2023-02-17T11:03:42;13.00;99.90
13652;DHT22;6899;51.546;6.912;2023-02-17T11:06:16;13.00;99.90
13652;DHT22;6899;51.546;6.912;2023-02-17T11:08:49;13.00;99.90
13652;DHT22;6899;51.546;6.912;2023-02-17T11:11:19;12.80;99.90
13652;DHT22;6899;51.546;6.912;2023-02-17T11:14:03;12.90;99.90
13652;DHT22;6899;51.546;6.912;2023-02-17T11:16:36;13.00;99.90
13652;DHT22;6899;51.546;6.912;2023-02-17T11:19:04;13.20;99.90
13652;DHT22;6899;51.546;6.912;2023-02-17T11:21:32;13.40;99.90
13652;DHT22;6899;51.546;6.912;2023-02-17T11:24:11;13.60;99.90
13652;DHT22;6899;51.546;6.912;2023-02-17T11:26:38;13.90;99.90
13652;DHT22;6899;51.546;6.912;2023-02-17T11:29:14;14.10;99.90
13652;DHT22;6899;51.546;6.912;2023-02-17T11:31:52;14.10;99.90
13652;DHT22;6899;51.546;6.912;2023-02-17T11:34:23;14.00;99.90
13652;DHT22;6899;51.546;6.912;2023-02-17T11:36:58;14.10;99.90
13652;DHT22;6899;51.546;6.912;2023-02-17T11:39:27;14.00;99.90
13652;DHT22;6899;51.546;6.912;2023-02-17T11:41:54;13.90;99.90
13652;DHT22;6899;51.546;6.912;2023-02-17T11:44:23;13.90;99.90
13652;DHT22;6899;51.546;6.912;2023-02-17T11:46:59;14.00;99.90
13652;DHT22;6899;51.546;6.912;2023-02-17T11:52:52;13.60;99.90
13652;DHT22;6899;51.546;6.912;2023-02-17T11:55:34;13.40;99.90
13652;DHT22;6899;51.546;6.912;2023-02-17T11:58:22;13.30;99.90
13652;DHT22;6899;51.546;6.912;2023-02-17T12:01:01;13.40;99.90
13652;DHT22;6899;51.546;6.912;2023-02-17T12:06:23;13.50;99.90
13652;DHT22;6899;51.546;6.912;2023-02-17T12:08:59;13.60;99.90
13652;DHT22;6899;51.546;6.912;2023-02-17T12:11:36;13.80;99.90
13652;DHT22;6899;51.546;6.912;2023-02-17T12:14:19;13.70;99.90
13652;DHT22;6899;51.546;6.912;2023-02-17T12:16:58;13.70;99.90
13652;DHT22;6899;51.546;6.912;2023-02-17T12:19:39;14.00;99.90
13652;DHT22;6899;51.546;6.912;2023-02-17T12:22:15;14.30;99.90
13652;DHT22;6899;51.546;6.912;2023-02-17T12:24:57;14.30;99.90
13652;DHT22;6899;51.546;6.912;2023-02-17T12:27:36;14.40;99.90
13652;DHT22;6899;51.546;6.912;2023-02-17T12:30:23;14.40;99.90
13652;DHT22;6899;51.546;6.912;2023-02-17T12:33:13;14.30;99.90
13652;DHT22;6899;51.546;6.912;2023-02-17T12:35:52;14.10;99.90
13652;DHT22;6899;51.546;6.912;2023-02-17T12:38:25;14.00;99.90
13652;DHT22;6899;51.546;6.912;2023-02-17T12:40:56;14.00;99.90
13652;DHT22;6899;51.546;6.912;2023-02-17T12:43:33;13.90;99.90
13652;DHT22;6899;51.546;6.912;2023-02-17T12:46:05;13.70;99.90
13652;DHT22;6899;51.546;6.912;2023-02-17T12:48:36;13.60;99.90
13652;DHT22;6899;51.546;6.912;2023-02-17T12:51:08;13.60;99.90
13652;DHT22;6899;51.546;6.912;2023-02-17T12:53:44;13.50;99.90
13652;DHT22;6899;51.546;6.912;2023-02-17T12:59:19;13.40;99.90
13652;DHT22;6899;51.546;6.912;2023-02-17T13:01:51;13.60;99.90
13652;DHT22;6899;51.546;6.912;2023-02-17T13:04:22;13.70;99.90
13652;DHT22;6899;51.546;6.912;2023-02-17T13:06:54;13.70;99.90
13652;DHT22;6899;51.546;6.912;2023-02-17T13:09:28;13.70;99.90
13652;DHT22;6899;51.546;6.912;2023-02-17T13:12:15;13.70;99.90
13652;DHT22;6899;51.546;6.912;2023-02-17T13:14:44;13.80;99.90
13652;DHT22;6899;51.546;6.912;2023-02-17T13:17:26;13.80;99.90
13652;DHT22;6899;51.546;6.912;2023-02-17T13:22:47;13.80;99.90
13652;DHT22;6899;51.546;6.912;2023-02-17T13:25:27;13.80;99.90
13652;DHT22;6899;51.546;6.912;2023-02-17T13:27:54;13.80;99.90
13652;DHT22;6899;51.546;6.912;2023-02-17T13:30:29;13.80;99.90
13652;DHT22;6899;51.546;6.912;2023-02-17T13:33:00;13.90;99.90
13652;DHT22;6899;51.546;6.912;2023-02-17T13:35:31;13.90;99.90
13652;DHT22;6899;51.546;6.912;2023-02-17T13:37:58;13.80;99.90
13652;DHT22;6899;51.546;6.912;2023-02-17T13:40:40;13.70;99.90
13652;DHT22;6899;51.546;6.912;2023-02-17T13:43:12;13.60;99.90
13652;DHT22;6899;51.546;6.912;2023-02-17T13:45:43;13.40;99.90
13652;DHT22;6899;51.546;6.912;2023-02-17T13:48:12;13.40;99.90
13652;DHT22;6899;51.546;6.912;2023-02-17T13:50:43;13.40;99.90
13652;DHT22;6899;51.546;6.912;2023-02-17T13:53:26;13.40;99.90
13652;DHT22;6899;51.546;6.912;2023-02-17T13:55:56;13.30;99.90
13652;DHT22;6899;51.546;6.912;2023-02-17T13:58:26;13.20;99.90
13652;DHT22;6899;51.546;6.912;2023-02-17T14:00:56;13.20;99.90
13652;DHT22;6899;51.546;6.912;2023-02-17T14:03:25;13.20;99.90
13652;DHT22;6899;51.546;6.912;2023-02-17T14:05:54;13.10;99.90
13652;DHT22;6899;51.546;6.912;2023-02-17T14:08:31;13.10;99.90
13652;DHT22;6899;51.546;6.912;2023-02-17T14:11:05;13.00;99.90
13652;DHT22;6899;51.546;6.912;2023-02-17T14:13:37;13.00;99.90
13652;DHT22;6899;51.546;6.912;2023-02-17T14:16:06;13.00;99.90
13652;DHT22;6899;51.546;6.912;2023-02-17T14:18:36;13.00;99.90
13652;DHT22;6899;51.546;6.912;2023-02-17T14:21:06;13.00;99.90
13652;DHT22;6899;51.546;6.912;2023-02-17T14:23:42;12.90;99.90
13652;DHT22;6899;51.546;6.912;2023-02-17T14:26:10;12.80;99.90
13652;DHT22;6899;51.546;6.912;2023-02-17T14:28:37;12.70;99.90
13652;DHT22;6899;51.546;6.912;2023-02-17T14:31:10;12.60;99.90
13652;DHT22;6899;51.546;6.912;2023-02-17T14:33:37;12.40;99.90
13652;DHT22;6899;51.546;6.912;2023-02-17T14:36:05;12.20;99.90
13652;DHT22;6899;51.546;6.912;2023-02-17T14:38:38;12.10;99.90
13652;DHT22;6899;51.546;6.912;2023-02-17T14:41:06;12.00;99.90
13652;DHT22;6899;51.546;6.912;2023-02-17T14:43:34;11.80;99.90
13652;DHT22;6899;51.546;6.912;2023-02-17T14:46:01;11.70;99.90
13652;DHT22;6899;51.546;6.912;2023-02-17T14:48:29;11.60;99.90
13652;DHT22;6899;51.546;6.912;2023-02-17T14:50:57;11.50;99.90
13652;DHT22;6899;51.546;6.912;2023-02-17T14:53:26;11.50;99.90
13652;DHT22;6899;51.546;6.912;2023-02-17T14:55:57;11.40;99.90
13652;DHT22;6899;51.546;6.912;2023-02-17T14:58:25;11.40;99.90
13652;DHT22;6899;51.546;6.912;2023-02-17T15:00:56;11.30;99.90
13652;DHT22;6899;51.546;6.912;2023-02-17T15:03:26;11.30;99.90
13652;DHT22;6899;51.546;6.912;2023-02-17T15:05:55;11.30;99.90
13652;DHT22;6899;51.546;6.912;2023-02-17T15:08:29;11.20;99.90
13652;DHT22;6899;51.546;6.912;2023-02-17T15:10:56;11.20;99.90
13652;DHT22;6899;51.546;6.912;2023-02-17T15:13:23;11.20;99.90
13652;DHT22;6899;51.546;6.912;2023-02-17T15:15:51;11.20;99.90
13652;DHT22;6899;51.546;6.912;2023-02-17T15:18:19;11.20;99.90
13652;DHT22;6899;51.546;6.912;2023-02-17T15:20:47;11.00;99.90
13652;DHT22;6899;51.546;6.912;2023-02-17T15:23:18;11.00;99.90
13652;DHT22;6899;51.546;6.912;2023-02-17T15:25:46;11.10;99.90
13652;DHT22;6899;51.546;6.912;2023-02-17T15:28:14;11.10;99.90
13652;DHT22;6899;51.546;6.912;2023-02-17T15:30:42;11.10;99.90
13652;DHT22;6899;51.546;6.912;2023-02-17T15:33:11;11.10;99.90
13652;DHT22;6899;51.546;6.912;2023-02-17T15:35:39;11.10;99.90
13652;DHT22;6899;51.546;6.912;2023-02-17T15:38:10;11.10;99.90
13652;DHT22;6899;51.546;6.912;2023-02-17T15:40:39;11.10;99.90
13652;DHT22;6899;51.546;6.912;2023-02-17T15:43:10;11.20;99.90
13652;DHT22;6899;51.546;6.912;2023-02-17T15:45:39;11.10;99.90
13652;DHT22;6899;51.546;6.912;2023-02-17T15:48:10;11.10;99.90
13652;DHT22;6899;51.546;6.912;2023-02-17T15:50:37;11.10;99.90
13652;DHT22;6899;51.546;6.912;2023-02-17T15:53:05;11.20;99.90
13652;DHT22;6899;51.546;6.912;2023-02-17T15:55:32;11.20;99.90
13652;DHT22;6899;51.546;6.912;2023-02-17T15:58:05;11.20;99.90
13652;DHT22;6899;51.546;6.912;2023-02-17T16:00:34;11.20;99.90
13652;DHT22;6899;51.546;6.912;2023-02-17T16:03:01;11.20;99.90
13652;DHT22;6899;51.546;6.912;2023-02-17T16:05:29;11.10;99.90
13652;DHT22;6899;51.546;6.912;2023-02-17T16:07:58;11.20;99.90
13652;DHT22;6899;51.546;6.912;2023-02-17T16:10:25;11.30;99.90
13652;DHT22;6899;51.546;6.912;2023-02-17T16:12:57;11.30;99.90
13652;DHT22;6899;51.546;6.912;2023-02-17T16:15:28;11.40;99.90
13652;DHT22;6899;51.546;6.912;2023-02-17T16:17:56;11.40;99.90
13652;DHT22;6899;51.546;6.912;2023-02-17T16:20:25;11.40;99.90
13652;DHT22;6899;51.546;6.912;2023-02-17T16:22:56;11.50;99.90
13652;DHT22;6899;51.546;6.912;2023-02-17T16:25:27;11.50;99.90